createdAt,value
2019-02-10T00:00:10.931Z,3.40
2019-02-10T00:03:46.993Z,3.30
2019-02-10T00:06:24.269Z,3.30
2019-02-10T00:08:47.982Z,3.30
2019-02-10T00:11:17.627Z,3.20
2019-02-10T00:13:47.247Z,3.20
2019-02-10T00:16:21.854Z,3.20
2019-02-10T00:18:51.575Z,3.10
2019-02-10T00:21:21.233Z,3.00
2019-02-10T00:23:50.876Z,2.80
2019-02-10T00:26:20.465Z,2.80
2019-02-10T00:28:50.115Z,2.70
2019-02-10T00:31:19.759Z,2.60
2019-02-10T00:33:49.348Z,2.60
2019-02-10T00:36:18.934Z,2.50
2019-02-10T00:38:50.859Z,2.40
2019-02-10T00:41:20.591Z,2.40
2019-02-10T00:43:50.177Z,2.30
2019-02-10T00:46:19.834Z,2.30
2019-02-10T00:48:49.423Z,2.20
2019-02-10T00:51:19.022Z,2.20
2019-02-10T00:53:48.686Z,2.20
2019-02-10T00:56:18.313Z,2.20
2019-02-10T00:58:47.967Z,2.20
2019-02-10T01:01:17.648Z,2.30
2019-02-10T01:03:47.386Z,2.30
2019-02-10T01:06:17.059Z,2.20
2019-02-10T01:08:46.711Z,2.20
2019-02-10T01:11:16.364Z,2.20
2019-02-10T01:13:46.107Z,2.20
2019-02-10T01:16:15.712Z,2.20
2019-02-10T01:19:12.498Z,2.20
2019-02-10T01:21:43.655Z,2.20
2019-02-10T01:24:13.247Z,2.10
2019-02-10T01:26:42.980Z,2.10
2019-02-10T01:29:12.625Z,2.10
2019-02-10T01:31:42.222Z,2.00
2019-02-10T01:34:11.883Z,2.00
2019-02-10T01:36:49.214Z,2.00
2019-02-10T01:39:19.547Z,2.00
2019-02-10T01:41:49.191Z,2.00
2019-02-10T01:44:18.909Z,2.00
2019-02-10T01:46:48.641Z,1.90
2019-02-10T01:49:18.343Z,1.80
2019-02-10T01:51:47.986Z,1.80
2019-02-10T01:54:17.691Z,1.70
2019-02-10T01:56:47.287Z,1.70
2019-02-10T01:59:16.910Z,1.60
2019-02-10T02:01:46.571Z,1.60
2019-02-10T02:04:16.251Z,1.60
2019-02-10T02:06:45.895Z,1.60
2019-02-10T02:09:16.056Z,1.50
2019-02-10T02:11:45.642Z,1.50
2019-02-10T02:14:15.292Z,1.50
2019-02-10T02:16:44.939Z,1.50
2019-02-10T02:19:14.583Z,1.60
2019-02-10T02:21:44.223Z,1.60
2019-02-10T02:24:13.830Z,1.60
2019-02-10T02:26:43.456Z,1.70
2019-02-10T02:29:13.075Z,1.70
2019-02-10T02:31:42.652Z,1.70
2019-02-10T02:34:12.316Z,1.80
2019-02-10T02:36:45.155Z,1.90
2019-02-10T02:39:14.795Z,1.80
2019-02-10T02:41:44.433Z,1.70
2019-02-10T02:44:14.146Z,1.70
2019-02-10T02:46:43.770Z,1.70
2019-02-10T02:49:13.414Z,1.70
2019-02-10T02:51:43.052Z,1.70
2019-02-10T02:54:12.697Z,1.70
2019-02-10T02:56:42.282Z,1.80
2019-02-10T02:59:11.934Z,1.80
2019-02-10T03:01:41.540Z,1.80
2019-02-10T03:04:11.166Z,1.80
2019-02-10T03:06:47.069Z,1.90
2019-02-10T03:09:17.041Z,1.80
2019-02-10T03:11:46.717Z,1.80
2019-02-10T03:14:16.320Z,1.80
2019-02-10T03:16:45.948Z,1.70
2019-02-10T03:19:15.535Z,1.70
2019-02-10T03:21:45.224Z,1.60
2019-02-10T03:24:14.828Z,1.70
2019-02-10T03:26:44.461Z,1.60
2019-02-10T03:29:14.026Z,1.70
2019-02-10T03:31:43.622Z,1.60
2019-02-10T03:34:13.271Z,1.70
2019-02-10T03:36:42.898Z,1.70
2019-02-10T03:39:12.534Z,1.70
2019-02-10T03:41:42.125Z,1.70
2019-02-10T03:44:11.758Z,1.70
2019-02-10T03:46:41.414Z,1.80
2019-02-10T03:49:11.206Z,1.90
2019-02-10T03:51:40.769Z,1.90
2019-02-10T03:54:10.331Z,2.00
2019-02-10T03:56:39.967Z,2.00
2019-02-10T03:59:09.611Z,2.10
2019-02-10T04:01:39.194Z,2.10
2019-02-10T04:04:08.936Z,2.10
2019-02-10T04:06:38.641Z,2.20
2019-02-10T04:09:08.272Z,2.20
2019-02-10T04:11:37.918Z,2.30
2019-02-10T04:14:07.576Z,2.30
2019-02-10T04:16:37.163Z,2.30
2019-02-10T04:19:06.750Z,2.40
2019-02-10T04:21:36.392Z,2.40
2019-02-10T04:24:05.984Z,2.40
2019-02-10T04:26:35.683Z,2.40
2019-02-10T04:29:05.255Z,2.40
2019-02-10T04:31:34.890Z,2.50
2019-02-10T04:34:04.466Z,2.50
2019-02-10T04:36:34.062Z,2.50
2019-02-10T04:39:04.602Z,2.50
2019-02-10T04:41:34.240Z,2.50
2019-02-10T04:44:03.886Z,2.50
2019-02-10T04:46:33.469Z,2.50
2019-02-10T04:49:03.082Z,2.40
2019-02-10T04:51:32.688Z,2.40
2019-02-10T04:54:02.318Z,2.40
2019-02-10T04:56:31.935Z,2.40
2019-02-10T04:59:01.675Z,2.50
2019-02-10T05:01:31.317Z,2.50
2019-02-10T05:04:00.906Z,2.50
2019-02-10T05:06:30.563Z,2.50
2019-02-10T05:09:00.137Z,2.50
2019-02-10T05:11:29.790Z,2.60
2019-02-10T05:13:59.419Z,2.70
2019-02-10T05:16:28.988Z,2.70
2019-02-10T05:18:58.628Z,2.80
2019-02-10T05:21:28.239Z,2.90
2019-02-10T05:24:03.510Z,2.90
2019-02-10T05:26:29.126Z,3.00
2019-02-10T05:28:58.762Z,3.10
2019-02-10T05:31:28.376Z,3.20
2019-02-10T05:33:57.958Z,3.30
2019-02-10T05:36:27.589Z,3.30
2019-02-10T05:38:57.175Z,3.30
2019-02-10T05:41:26.822Z,3.30
2019-02-10T05:43:56.414Z,3.40
2019-02-10T05:46:26.044Z,3.40
2019-02-10T05:48:55.669Z,3.40
2019-02-10T05:51:25.265Z,3.50
2019-02-10T05:53:54.918Z,3.50
2019-02-10T05:56:24.549Z,3.50
2019-02-10T05:58:54.178Z,3.60
2019-02-10T06:02:01.434Z,3.60
2019-02-10T06:04:32.363Z,3.60
2019-02-10T06:07:04.308Z,3.60
2019-02-10T06:09:33.915Z,3.60
2019-02-10T06:12:03.561Z,3.60
2019-02-10T06:14:33.192Z,3.60
2019-02-10T06:17:02.849Z,3.60
2019-02-10T06:19:32.434Z,3.60
2019-02-10T06:22:02.010Z,3.60
2019-02-10T06:24:31.652Z,3.70
2019-02-10T06:27:01.331Z,3.70
2019-02-10T06:29:30.961Z,3.70
2019-02-10T06:32:00.537Z,3.80
2019-02-10T06:34:30.181Z,3.80
2019-02-10T06:36:59.774Z,3.90
2019-02-10T06:39:29.359Z,3.90
2019-02-10T06:41:58.999Z,4.00
2019-02-10T06:44:28.677Z,4.00
2019-02-10T06:46:58.347Z,4.00
2019-02-10T06:49:27.981Z,4.20
2019-02-10T06:51:57.673Z,4.20
2019-02-10T06:54:27.268Z,4.20
2019-02-10T06:56:56.925Z,4.20
2019-02-10T06:59:33.797Z,4.20
2019-02-10T07:02:10.828Z,4.20
2019-02-10T07:04:40.486Z,4.20
2019-02-10T07:07:10.076Z,4.30
2019-02-10T07:09:39.753Z,4.30
2019-02-10T07:12:49.539Z,4.30
2019-02-10T07:15:55.082Z,4.40
2019-02-10T07:19:00.741Z,4.50
2019-02-10T07:21:36.828Z,4.50
2019-02-10T07:24:41.449Z,4.60
2019-02-10T07:27:31.401Z,4.60
2019-02-10T07:30:42.981Z,4.60
2019-02-10T07:33:44.925Z,4.70
2019-02-10T07:36:28.273Z,4.70
2019-02-10T07:39:38.882Z,4.70
2019-02-10T07:42:34.504Z,4.80
2019-02-10T07:46:06.156Z,4.90
2019-02-10T07:48:50.206Z,5.00
2019-02-10T07:51:35.535Z,5.00
2019-02-10T07:54:45.893Z,5.10
2019-02-10T07:58:05.495Z,5.10
2019-02-10T08:00:49.299Z,5.10
2019-02-10T08:03:56.671Z,5.10
2019-02-10T08:07:20.619Z,5.00
2019-02-10T08:10:06.928Z,5.10
2019-02-10T08:13:29.848Z,5.00
2019-02-10T08:16:27.801Z,5.00
2019-02-10T08:19:30.395Z,5.00
2019-02-10T08:22:16.212Z,5.10
2019-02-10T08:25:45.011Z,5.10
2019-02-10T08:28:42.861Z,5.10
2019-02-10T08:31:42.821Z,5.10
2019-02-10T08:34:53.457Z,5.10
2019-02-10T08:37:46.527Z,5.10
2019-02-10T08:41:09.337Z,5.10
2019-02-10T08:44:34.536Z,5.10
2019-02-10T08:47:57.160Z,5.10
2019-02-10T08:51:03.519Z,5.10
2019-02-10T08:53:39.847Z,5.10
2019-02-10T08:56:09.514Z,5.10
2019-02-10T08:58:39.215Z,5.10
2019-02-10T09:01:08.876Z,5.10
2019-02-10T09:03:38.628Z,5.00
2019-02-10T09:06:08.215Z,5.10
2019-02-10T09:08:37.930Z,5.00
2019-02-10T09:11:07.532Z,5.00
2019-02-10T09:13:37.359Z,5.00
2019-02-10T09:16:06.963Z,5.10
2019-02-10T09:18:36.619Z,5.10
2019-02-10T09:21:06.215Z,5.10
2019-02-10T09:23:35.849Z,5.20
2019-02-10T09:26:05.458Z,5.30
2019-02-10T09:28:35.095Z,5.30
2019-02-10T09:31:04.695Z,5.30
2019-02-10T09:33:34.283Z,5.30
2019-02-10T09:36:03.922Z,5.30
2019-02-10T09:38:33.513Z,5.40
2019-02-10T09:41:03.350Z,5.40
2019-02-10T09:43:32.943Z,5.50
2019-02-10T09:46:02.571Z,5.50
2019-02-10T09:48:32.232Z,5.50
2019-02-10T09:51:01.819Z,5.50
2019-02-10T09:53:31.595Z,5.60
2019-02-10T09:56:01.321Z,5.60
2019-02-10T09:58:31.454Z,5.60
2019-02-10T10:01:01.792Z,5.70
2019-02-10T10:03:32.883Z,5.70
2019-02-10T10:06:02.748Z,5.80
2019-02-10T10:08:32.449Z,5.90
2019-02-10T10:11:02.225Z,5.90
2019-02-10T10:13:32.074Z,5.90
2019-02-10T10:16:01.954Z,5.90
2019-02-10T10:18:31.649Z,5.90
2019-02-10T10:21:01.398Z,5.90
2019-02-10T10:23:31.106Z,5.90
2019-02-10T10:26:00.862Z,5.90
2019-02-10T10:28:30.458Z,5.90
2019-02-10T10:31:00.204Z,5.90
2019-02-10T10:33:31.953Z,5.90
2019-02-10T10:36:01.939Z,5.90
2019-02-10T10:38:31.572Z,5.90
2019-02-10T10:41:04.459Z,5.90
2019-02-10T10:43:34.096Z,6.10
2019-02-10T10:46:03.880Z,6.10
2019-02-10T10:48:33.652Z,6.10
2019-02-10T10:51:03.445Z,6.20
2019-02-10T10:53:38.348Z,6.20
2019-02-10T10:56:08.210Z,6.20
2019-02-10T10:58:38.397Z,6.20
2019-02-10T11:01:08.186Z,6.10
2019-02-10T11:03:37.850Z,6.10
2019-02-10T11:06:07.626Z,6.10
2019-02-10T11:08:37.511Z,6.10
2019-02-10T11:11:07.278Z,6.20
2019-02-10T11:13:37.128Z,6.20
2019-02-10T11:16:06.866Z,6.20
2019-02-10T11:18:37.701Z,6.20
2019-02-10T11:21:07.413Z,6.20
2019-02-10T11:23:37.549Z,6.20
2019-02-10T11:26:07.271Z,6.20
2019-02-10T11:28:37.051Z,6.30
2019-02-10T11:31:06.923Z,6.30
2019-02-10T11:33:36.532Z,6.30
2019-02-10T11:36:06.333Z,6.40
2019-02-10T11:38:36.801Z,6.50
2019-02-10T11:41:08.774Z,6.50
2019-02-10T11:43:38.499Z,6.50
2019-02-10T11:46:08.184Z,6.60
2019-02-10T11:48:38.099Z,6.60
2019-02-10T11:51:08.763Z,6.60
2019-02-10T11:53:39.518Z,6.70
2019-02-10T11:56:09.298Z,6.70
2019-02-10T11:58:39.366Z,6.80
2019-02-10T12:01:09.513Z,6.80
2019-02-10T12:03:39.320Z,6.90
2019-02-10T12:06:09.035Z,6.90
2019-02-10T12:08:38.774Z,6.90
2019-02-10T12:11:08.448Z,6.90
2019-02-10T12:13:39.219Z,6.90
2019-02-10T12:16:09.605Z,7.00
2019-02-10T12:18:39.257Z,7.00
2019-02-10T12:21:08.984Z,7.00
2019-02-10T12:23:38.611Z,7.00
2019-02-10T12:26:08.397Z,7.00
2019-02-10T12:28:38.303Z,7.00
2019-02-10T12:31:08.031Z,7.00
2019-02-10T12:33:37.723Z,7.00
2019-02-10T12:36:07.595Z,7.00
2019-02-10T12:38:37.383Z,7.00
2019-02-10T12:41:07.568Z,7.00
2019-02-10T12:43:38.545Z,7.00
2019-02-10T12:46:09.048Z,7.00
2019-02-10T12:48:43.424Z,7.00
2019-02-10T12:51:14.349Z,7.00
2019-02-10T12:53:50.820Z,7.10
2019-02-10T12:56:33.461Z,7.00
2019-02-10T12:59:17.711Z,7.10
2019-02-10T13:01:47.633Z,7.10
2019-02-10T13:04:18.105Z,7.20
2019-02-10T13:06:47.818Z,7.20
2019-02-10T13:09:24.984Z,7.20
2019-02-10T13:11:58.481Z,7.20
2019-02-10T13:14:31.127Z,7.20
2019-02-10T13:17:01.964Z,7.20
2019-02-10T13:19:31.785Z,7.30
2019-02-10T13:22:01.452Z,7.30
2019-02-10T13:24:31.220Z,7.30
2019-02-10T13:27:06.862Z,7.30
2019-02-10T13:29:37.163Z,7.30
2019-02-10T13:32:16.784Z,7.30
2019-02-10T13:34:47.914Z,7.30
2019-02-10T13:37:17.639Z,7.30
2019-02-10T13:39:47.339Z,7.30
2019-02-10T13:42:17.199Z,7.30
2019-02-10T13:44:46.950Z,7.30
2019-02-10T13:47:16.704Z,7.30
2019-02-10T13:49:48.424Z,7.20
2019-02-10T13:52:18.591Z,7.20
2019-02-10T13:54:52.385Z,7.20
2019-02-10T13:57:22.516Z,7.20
2019-02-10T13:59:54.536Z,7.20
2019-02-10T14:02:30.140Z,7.20
2019-02-10T14:05:05.396Z,7.20
2019-02-10T14:07:35.431Z,7.20
2019-02-10T14:10:06.611Z,7.20
2019-02-10T14:12:37.408Z,7.20
2019-02-10T14:15:12.190Z,7.20
2019-02-10T14:17:42.142Z,7.30
2019-02-10T14:20:16.242Z,7.30
2019-02-10T14:22:47.835Z,7.30
2019-02-10T14:25:17.854Z,7.30
2019-02-10T14:27:49.232Z,7.30
2019-02-10T14:30:19.001Z,7.30
2019-02-10T14:32:48.809Z,7.30
2019-02-10T14:35:21.985Z,7.20
2019-02-10T14:37:51.816Z,7.20
2019-02-10T14:40:21.524Z,7.20
2019-02-10T14:42:52.044Z,7.20
2019-02-10T14:45:22.078Z,7.20
2019-02-10T14:47:52.195Z,7.20
2019-02-10T14:50:21.879Z,7.20
2019-02-10T14:52:54.675Z,7.20
2019-02-10T14:55:24.757Z,7.20
2019-02-10T14:57:55.515Z,7.10
2019-02-10T15:00:25.270Z,7.10
2019-02-10T15:02:55.119Z,7.10
2019-02-10T15:05:24.905Z,7.10
2019-02-10T15:07:55.095Z,7.10
2019-02-10T15:10:43.569Z,7.10
2019-02-10T15:13:15.317Z,7.10
2019-02-10T15:15:49.656Z,7.10
2019-02-10T15:18:19.504Z,7.10
2019-02-10T15:20:49.637Z,7.10
2019-02-10T15:23:19.357Z,7.00
2019-02-10T15:25:52.722Z,7.00
2019-02-10T15:28:33.885Z,7.10
2019-02-10T15:31:21.619Z,7.00
2019-02-10T15:33:57.797Z,7.00
2019-02-10T15:36:29.259Z,7.00
2019-02-10T15:39:00.092Z,7.00
2019-02-10T15:41:32.082Z,7.00
2019-02-10T15:44:01.838Z,6.90
2019-02-10T15:46:32.754Z,6.90
2019-02-10T15:49:03.709Z,6.90
2019-02-10T15:51:37.126Z,6.90
2019-02-10T15:54:13.179Z,6.80
2019-02-10T15:56:42.956Z,6.80
2019-02-10T15:59:14.160Z,6.90
2019-02-10T16:01:56.998Z,6.80
2019-02-10T16:05:02.480Z,6.80
2019-02-10T16:08:01.111Z,6.90
2019-02-10T16:10:47.493Z,6.90
2019-02-10T16:14:09.502Z,6.90
2019-02-10T16:16:43.962Z,6.90
2019-02-10T16:19:32.697Z,6.90
2019-02-10T16:22:17.430Z,6.90
2019-02-10T16:24:53.906Z,6.80
2019-02-10T16:27:45.262Z,6.80
2019-02-10T16:30:21.610Z,6.80
2019-02-10T16:32:54.943Z,6.80
2019-02-10T16:35:29.170Z,6.80
2019-02-10T16:38:12.831Z,6.80
2019-02-10T16:41:05.931Z,6.90
2019-02-10T16:43:52.581Z,6.90
2019-02-10T16:46:24.771Z,6.80
2019-02-10T16:48:55.900Z,6.80
2019-02-10T16:51:26.710Z,6.80
2019-02-10T16:56:47.763Z,6.80
2019-02-10T16:59:18.673Z,6.80
2019-02-10T17:01:54.541Z,6.80
2019-02-10T17:04:24.986Z,6.80
2019-02-10T17:06:54.698Z,6.80
2019-02-10T17:09:25.263Z,6.90
2019-02-10T17:11:55.580Z,6.80
2019-02-10T17:14:25.518Z,6.80
2019-02-10T17:17:08.953Z,6.80
2019-02-10T17:19:49.292Z,6.80
2019-02-10T17:22:19.143Z,6.70
2019-02-10T17:24:49.345Z,6.80
2019-02-10T17:27:19.110Z,6.80
2019-02-10T17:29:59.253Z,6.80
2019-02-10T17:32:30.805Z,6.80
2019-02-10T17:35:00.706Z,6.80
2019-02-10T17:37:30.376Z,6.90
2019-02-10T17:40:00.275Z,6.90
2019-02-10T17:42:33.394Z,6.90
2019-02-10T17:45:10.524Z,6.90
2019-02-10T17:47:40.246Z,7.00
2019-02-10T17:50:10.674Z,7.00
2019-02-10T17:52:42.709Z,7.00
2019-02-10T17:55:12.369Z,7.10
2019-02-10T17:57:42.274Z,7.10
2019-02-10T18:00:12.775Z,7.20
2019-02-10T18:02:43.979Z,7.20
2019-02-10T18:05:13.971Z,7.30
2019-02-10T18:07:44.185Z,7.30
2019-02-10T18:12:59.100Z,7.40
2019-02-10T18:15:49.008Z,7.40
2019-02-10T18:18:46.597Z,7.40
2019-02-10T18:21:36.989Z,7.40
2019-02-10T18:24:43.467Z,7.40
2019-02-10T18:27:48.024Z,7.50
2019-02-10T18:30:53.006Z,7.60
2019-02-10T18:33:36.851Z,7.60
2019-02-10T18:36:33.371Z,7.60
2019-02-10T18:39:45.756Z,7.60
2019-02-10T18:42:42.965Z,7.60
2019-02-10T18:45:27.660Z,7.70
2019-02-10T18:48:21.069Z,7.70
2019-02-10T18:51:12.162Z,7.70
2019-02-10T18:54:10.034Z,7.60
2019-02-10T18:56:48.407Z,7.60
2019-02-10T18:59:28.141Z,7.60
2019-02-10T19:02:12.727Z,7.60
2019-02-10T19:05:08.482Z,7.50
2019-02-10T19:07:57.461Z,7.40
2019-02-10T19:10:46.270Z,7.40
2019-02-10T19:13:33.811Z,7.30
2019-02-10T19:16:09.778Z,7.30
2019-02-10T19:19:07.771Z,7.20
2019-02-10T19:21:48.811Z,7.20
2019-02-10T19:24:41.240Z,7.10
2019-02-10T19:27:29.937Z,7.10
2019-02-10T19:30:19.430Z,7.00
2019-02-10T19:33:10.544Z,6.90
2019-02-10T19:36:02.708Z,7.00
2019-02-10T19:38:45.152Z,7.00
2019-02-10T19:41:55.527Z,6.90
2019-02-10T19:44:39.814Z,6.90
2019-02-10T19:47:31.845Z,6.80
2019-02-10T19:50:30.354Z,6.70
2019-02-10T19:53:20.170Z,6.70
2019-02-10T19:56:07.576Z,6.60
2019-02-10T19:59:14.678Z,6.50
2019-02-10T20:02:05.291Z,6.50
2019-02-10T20:04:58.434Z,6.40
2019-02-10T20:07:49.885Z,6.40
2019-02-10T20:10:38.747Z,6.40
2019-02-10T20:13:33.455Z,6.40
2019-02-10T20:16:24.637Z,6.30
2019-02-10T20:19:07.037Z,6.30
2019-02-10T20:21:57.246Z,6.30
2019-02-10T20:24:54.650Z,6.30
2019-02-10T20:27:55.185Z,6.30
2019-02-10T20:30:43.800Z,6.40
2019-02-10T20:33:36.366Z,6.40
2019-02-10T20:36:23.985Z,6.40
2019-02-10T20:39:13.036Z,6.50
2019-02-10T20:41:54.162Z,6.50
2019-02-10T20:44:41.841Z,6.50
2019-02-10T20:47:20.796Z,6.50
2019-02-10T20:50:18.781Z,6.60
2019-02-10T20:53:04.527Z,6.50
2019-02-10T20:56:05.367Z,6.50
2019-02-10T20:58:50.248Z,6.50
2019-02-10T21:01:38.229Z,6.50
2019-02-10T21:04:41.058Z,6.50
2019-02-10T21:07:22.293Z,6.50
2019-02-10T21:10:13.091Z,6.50
2019-02-10T21:12:57.895Z,6.50
2019-02-10T21:15:52.688Z,6.60
2019-02-10T21:18:39.943Z,6.60
2019-02-10T21:21:28.742Z,6.70
2019-02-10T21:24:20.662Z,6.70
2019-02-10T21:27:01.868Z,6.80
2019-02-10T21:29:50.555Z,6.70
2019-02-10T21:32:36.477Z,6.70
2019-02-10T21:35:17.167Z,6.70
2019-02-10T21:37:52.947Z,6.70
2019-02-10T21:40:31.431Z,6.60
2019-02-10T21:43:35.349Z,6.50
2019-02-10T21:46:22.893Z,6.40
2019-02-10T21:48:59.214Z,6.40
2019-02-10T21:51:28.832Z,6.30
2019-02-10T21:53:58.531Z,6.20
2019-02-10T21:56:28.233Z,6.20
2019-02-10T21:58:57.852Z,6.10
2019-02-10T22:01:27.581Z,6.10
2019-02-10T22:03:57.207Z,6.10
2019-02-10T22:06:26.873Z,6.10
2019-02-10T22:08:56.471Z,6.00
2019-02-10T22:11:26.180Z,6.00
2019-02-10T22:13:55.793Z,6.00
2019-02-10T22:16:25.542Z,6.00
2019-02-10T22:18:55.484Z,6.00
2019-02-10T22:21:25.128Z,6.00
2019-02-10T22:23:54.826Z,6.00
2019-02-10T22:26:24.514Z,6.00
2019-02-10T22:28:54.205Z,6.00
2019-02-10T22:31:23.904Z,6.00
2019-02-10T22:33:53.579Z,6.10
2019-02-10T22:36:23.248Z,6.10
2019-02-10T22:38:53.031Z,6.10
2019-02-10T22:41:22.875Z,6.10
2019-02-10T22:43:52.614Z,6.10
2019-02-10T22:46:22.271Z,6.10
2019-02-10T22:48:51.941Z,6.10
2019-02-10T22:51:22.462Z,6.10
2019-02-10T22:53:52.521Z,6.10
2019-02-10T22:56:22.205Z,6.10
2019-02-10T22:58:51.989Z,6.10
2019-02-10T23:01:21.859Z,6.10
2019-02-10T23:03:51.459Z,6.10
2019-02-10T23:06:21.120Z,6.10
2019-02-10T23:08:50.794Z,6.20
2019-02-10T23:11:20.448Z,6.20
2019-02-10T23:13:50.136Z,6.20
2019-02-10T23:16:19.966Z,6.10
2019-02-10T23:18:49.559Z,6.10
2019-02-10T23:21:19.226Z,6.10
2019-02-10T23:23:49.364Z,6.10
2019-02-10T23:26:18.955Z,6.10
2019-02-10T23:28:49.578Z,6.10
2019-02-10T23:31:20.571Z,6.20
2019-02-10T23:33:50.334Z,6.20
2019-02-10T23:36:19.995Z,6.20
2019-02-10T23:38:49.795Z,6.10
2019-02-10T23:41:19.462Z,6.20
2019-02-10T23:43:49.098Z,6.10
2019-02-10T23:46:18.749Z,6.10
2019-02-10T23:48:48.400Z,6.10
2019-02-10T23:51:18.050Z,6.10
2019-02-10T23:53:47.731Z,6.10
2019-02-10T23:56:17.378Z,6.10
2019-02-10T23:58:47.017Z,6.00
